createdAt,value
2018-05-21T00:02:17.192Z,12.70
2018-05-21T00:04:44.751Z,12.70
2018-05-21T00:07:12.304Z,12.60
2018-05-21T00:09:39.859Z,12.60
2018-05-21T00:12:07.411Z,12.60
2018-05-21T00:14:34.991Z,12.60
2018-05-21T00:17:02.547Z,12.60
2018-05-21T00:19:30.161Z,12.60
2018-05-21T00:21:58.545Z,12.60
2018-05-21T00:24:27.258Z,12.60
2018-05-21T00:26:54.916Z,12.60
2018-05-21T00:29:22.486Z,12.60
2018-05-21T00:31:50.019Z,12.70
2018-05-21T00:34:17.614Z,12.70
2018-05-21T00:36:45.956Z,12.70
2018-05-21T00:39:13.625Z,12.70
2018-05-21T00:41:41.221Z,12.60
2018-05-21T00:44:08.757Z,12.60
2018-05-21T00:46:37.213Z,12.80
2018-05-21T00:49:04.868Z,12.70
2018-05-21T00:51:32.413Z,12.70
2018-05-21T00:54:00.142Z,12.70
2018-05-21T00:56:27.740Z,12.60
2018-05-21T00:58:56.135Z,12.70
2018-05-21T01:01:24.612Z,12.70
2018-05-21T01:03:52.200Z,12.60
2018-05-21T01:06:20.596Z,12.90
2018-05-21T01:08:48.912Z,12.90
2018-05-21T01:11:16.476Z,12.80
2018-05-21T01:13:44.162Z,12.90
2018-05-21T01:16:11.781Z,12.80
2018-05-21T01:18:39.393Z,12.80
2018-05-21T01:21:07.729Z,12.80
2018-05-21T01:23:35.284Z,12.90
2018-05-21T01:26:02.959Z,12.80
2018-05-21T01:28:30.575Z,12.80
2018-05-21T01:30:58.092Z,12.80
2018-05-21T01:33:25.611Z,12.70
2018-05-21T01:35:53.223Z,12.70
2018-05-21T01:38:20.802Z,12.70
2018-05-21T01:40:48.473Z,12.60
2018-05-21T01:43:17.167Z,12.70
2018-05-21T01:45:44.765Z,12.70
2018-05-21T01:48:12.379Z,12.80
2018-05-21T01:50:39.973Z,12.70
2018-05-21T01:53:08.331Z,12.70
2018-05-21T01:55:35.885Z,12.70
2018-05-21T01:58:03.475Z,12.60
2018-05-21T02:00:31.097Z,12.60
2018-05-21T02:02:58.711Z,12.50
2018-05-21T02:05:26.345Z,12.50
2018-05-21T02:07:53.958Z,12.40
2018-05-21T02:10:21.549Z,12.40
2018-05-21T02:12:49.105Z,12.30
2018-05-21T02:15:16.705Z,12.30
2018-05-21T02:17:44.944Z,12.20
2018-05-21T02:20:12.496Z,12.10
2018-05-21T02:22:40.169Z,12.10
2018-05-21T02:25:08.534Z,12.00
2018-05-21T02:27:36.146Z,12.00
2018-05-21T02:30:03.805Z,12.00
2018-05-21T02:32:32.118Z,12.10
2018-05-21T02:34:59.634Z,12.00
2018-05-21T02:37:28.668Z,12.10
2018-05-21T02:39:57.044Z,12.00
2018-05-21T02:42:24.598Z,12.00
2018-05-21T02:44:52.120Z,12.10
2018-05-21T02:47:19.770Z,12.00
2018-05-21T02:49:48.121Z,12.00
2018-05-21T02:52:15.701Z,11.90
2018-05-21T02:54:43.250Z,11.90
2018-05-21T02:57:10.892Z,11.80
2018-05-21T02:59:39.181Z,11.90
2018-05-21T03:02:07.586Z,11.90
2018-05-21T03:04:35.137Z,11.80
2018-05-21T03:07:03.474Z,11.80
2018-05-21T03:09:31.049Z,11.80
2018-05-21T03:11:58.685Z,11.80
2018-05-21T03:14:26.549Z,11.90
2018-05-21T03:16:54.235Z,11.90
2018-05-21T03:19:22.650Z,11.90
2018-05-21T03:21:50.338Z,11.80
2018-05-21T03:24:17.917Z,11.90
2018-05-21T03:26:45.756Z,11.90
2018-05-21T03:29:13.527Z,11.90
2018-05-21T03:31:42.148Z,12.00
2018-05-21T03:34:09.776Z,12.00
2018-05-21T03:36:37.758Z,12.10
2018-05-21T03:39:05.350Z,12.10
2018-05-21T03:41:33.726Z,12.40
2018-05-21T03:44:01.327Z,12.30
2018-05-21T03:46:28.898Z,12.60
2018-05-21T03:48:56.455Z,12.80
2018-05-21T03:51:24.831Z,13.10
2018-05-21T03:53:52.487Z,13.10
2018-05-21T03:56:20.065Z,13.30
2018-05-21T03:58:59.575Z,13.40
2018-05-21T04:01:38.906Z,13.40
2018-05-21T04:04:06.439Z,13.40
2018-05-21T04:06:33.996Z,13.40
2018-05-21T04:09:01.618Z,13.50
2018-05-21T04:11:29.913Z,13.60
2018-05-21T04:13:58.213Z,13.60
2018-05-21T04:16:25.717Z,13.60
2018-05-21T04:18:53.724Z,13.70
2018-05-21T04:21:21.451Z,13.80
2018-05-21T04:23:49.615Z,14.00
2018-05-21T04:26:19.216Z,14.30
2018-05-21T04:28:48.251Z,14.20
2018-05-21T04:31:28.096Z,14.50
2018-05-21T04:33:59.473Z,14.70
2018-05-21T04:36:27.379Z,14.90
2018-05-21T04:38:56.359Z,15.30
2018-05-21T04:41:24.233Z,15.30
2018-05-21T04:43:54.679Z,15.40
2018-05-21T04:46:22.763Z,15.40
2018-05-21T04:48:51.665Z,15.40
2018-05-21T04:51:20.350Z,15.60
2018-05-21T04:53:53.571Z,15.70
2018-05-21T04:56:21.719Z,15.70
2018-05-21T04:59:01.107Z,15.70
2018-05-21T05:01:45.989Z,15.80
2018-05-21T05:04:16.096Z,16.00
2018-05-21T05:06:44.100Z,16.20
2018-05-21T05:09:12.901Z,16.50
2018-05-21T05:11:52.001Z,16.90
2018-05-21T05:14:23.093Z,16.80
2018-05-21T05:16:52.313Z,18.00
2018-05-21T05:19:21.217Z,18.00
2018-05-21T05:22:05.340Z,17.90
2018-05-21T05:24:33.361Z,17.60
2018-05-21T05:27:00.994Z,16.90
2018-05-21T05:29:39.428Z,16.80
2018-05-21T05:32:09.847Z,16.90
2018-05-21T05:34:46.824Z,16.80
2018-05-21T05:37:18.470Z,17.20
2018-05-21T05:39:57.506Z,17.90
2018-05-21T05:42:36.313Z,18.40
2018-05-21T05:45:03.846Z,18.90
2018-05-21T05:47:31.352Z,18.40
2018-05-21T05:49:58.884Z,18.70
2018-05-21T05:52:30.525Z,18.60
2018-05-21T05:54:59.326Z,18.40
2018-05-21T05:57:37.717Z,18.70
2018-05-21T06:00:07.989Z,20.20
2018-05-21T06:02:35.871Z,20.70
2018-05-21T06:05:03.954Z,20.90
2018-05-21T06:07:41.939Z,22.60
2018-05-21T06:10:09.461Z,24.90
2018-05-21T06:12:37.125Z,25.40
2018-05-21T06:15:04.862Z,27.30
2018-05-21T06:17:33.080Z,27.10
2018-05-21T06:20:00.801Z,28.30
2018-05-21T06:22:28.569Z,28.50
2018-05-21T06:24:56.223Z,27.90
2018-05-21T06:27:25.754Z,29.00
2018-05-21T06:29:53.811Z,27.30
2018-05-21T06:32:21.682Z,27.00
2018-05-21T06:34:49.989Z,25.30
2018-05-21T06:37:17.553Z,25.30
2018-05-21T06:39:45.095Z,25.50
2018-05-21T06:42:14.511Z,25.80
2018-05-21T06:44:42.828Z,25.40
2018-05-21T06:47:12.552Z,24.30
2018-05-21T06:49:40.639Z,24.30
2018-05-21T06:52:08.620Z,24.40
2018-05-21T06:54:46.880Z,24.40
2018-05-21T06:57:15.313Z,24.20
2018-05-21T06:59:43.965Z,25.40
2018-05-21T07:02:11.659Z,25.40
2018-05-21T07:04:42.134Z,26.90
2018-05-21T07:07:10.847Z,25.80
2018-05-21T07:09:39.341Z,25.80
2018-05-21T07:12:09.679Z,24.90
2018-05-21T07:14:47.699Z,24.90
2018-05-21T07:17:15.479Z,26.00
2018-05-21T07:19:43.205Z,26.40
2018-05-21T07:22:15.288Z,26.30
2018-05-21T07:24:42.866Z,26.90
2018-05-21T07:27:11.024Z,29.00
2018-05-21T07:29:39.045Z,31.10
2018-05-21T07:32:10.638Z,35.00
2018-05-21T07:34:38.854Z,36.70
2018-05-21T07:37:06.537Z,37.30
2018-05-21T07:39:34.482Z,32.20
2018-05-21T07:42:06.150Z,31.80
2018-05-21T07:44:34.031Z,29.30
2018-05-21T07:47:02.014Z,27.60
2018-05-21T07:49:39.723Z,28.20
2018-05-21T07:52:17.334Z,26.80
2018-05-21T07:54:45.316Z,27.10
2018-05-21T07:57:13.359Z,27.20
2018-05-21T07:59:41.175Z,27.40
2018-05-21T08:02:08.850Z,28.70
2018-05-21T08:04:37.331Z,29.70
2018-05-21T08:07:06.248Z,31.10
2018-05-21T08:09:33.924Z,31.10
2018-05-21T08:12:02.215Z,31.30
2018-05-21T08:14:30.700Z,32.70
2018-05-21T08:16:59.023Z,31.90
2018-05-21T08:22:30.141Z,31.60
2018-05-21T08:24:58.172Z,30.60
2018-05-21T08:27:26.975Z,30.30
2018-05-21T08:29:57.412Z,27.50
2018-05-21T08:32:25.867Z,30.00
2018-05-21T08:34:53.583Z,30.00
2018-05-21T08:37:31.612Z,30.10
2018-05-21T08:39:59.854Z,29.20
2018-05-21T08:42:27.397Z,27.20
2018-05-21T08:44:54.932Z,28.00
2018-05-21T08:47:22.460Z,27.40
2018-05-21T08:49:50.589Z,27.60
2018-05-21T08:52:19.058Z,30.40
2018-05-21T08:54:46.519Z,30.30
2018-05-21T08:57:14.164Z,31.90
2018-05-21T08:59:48.745Z,33.00
2018-05-21T09:02:17.048Z,36.40
2018-05-21T09:04:45.575Z,36.90
2018-05-21T09:07:13.081Z,36.80
2018-05-21T09:09:50.831Z,36.60
2018-05-21T09:12:18.358Z,34.50
2018-05-21T09:14:45.861Z,36.00
2018-05-21T09:17:14.272Z,33.00
2018-05-21T09:19:41.839Z,32.90
2018-05-21T09:22:09.496Z,31.80
2018-05-21T09:24:48.230Z,31.20
2018-05-21T09:27:16.619Z,31.00
2018-05-21T09:29:44.935Z,32.30
2018-05-21T09:32:12.492Z,32.30
2018-05-21T09:34:40.768Z,30.20
2018-05-21T09:37:11.104Z,30.90
2018-05-21T09:39:42.148Z,30.90
2018-05-21T09:42:11.084Z,30.60
2018-05-21T09:44:41.885Z,30.60
2018-05-21T09:47:11.146Z,29.50
2018-05-21T09:49:42.167Z,29.20
2018-05-21T09:52:09.939Z,29.00
2018-05-21T09:54:37.755Z,28.60
2018-05-21T09:57:05.329Z,28.20
2018-05-21T09:59:33.105Z,28.80
2018-05-21T10:02:12.603Z,27.90
2018-05-21T10:04:40.091Z,27.70
2018-05-21T10:07:07.701Z,27.70
2018-05-21T10:09:35.685Z,27.50
2018-05-21T10:12:03.297Z,27.00
2018-05-21T10:14:31.083Z,27.50
2018-05-21T10:16:58.679Z,27.80
2018-05-21T10:19:26.220Z,27.60
2018-05-21T10:21:53.956Z,27.50
2018-05-21T10:24:21.464Z,27.30
2018-05-21T10:26:49.205Z,26.80
2018-05-21T10:29:17.652Z,27.70
2018-05-21T10:31:45.368Z,27.70
2018-05-21T10:34:12.961Z,27.50
2018-05-21T10:36:40.923Z,27.00
2018-05-21T10:39:09.301Z,26.80
2018-05-21T10:41:37.606Z,26.60
2018-05-21T10:44:05.487Z,26.60
2018-05-21T10:46:33.024Z,26.50
2018-05-21T10:49:01.657Z,26.50
2018-05-21T10:51:29.222Z,26.40
2018-05-21T10:53:56.718Z,26.80
2018-05-21T10:56:24.313Z,27.10
2018-05-21T10:58:51.837Z,26.70
2018-05-21T11:01:20.107Z,26.10
2018-05-21T11:03:47.623Z,26.10
2018-05-21T11:06:15.117Z,26.30
2018-05-21T11:08:42.702Z,26.70
2018-05-21T11:11:10.441Z,26.40
2018-05-21T11:13:38.064Z,26.10
2018-05-21T11:16:05.720Z,26.10
2018-05-21T11:18:33.629Z,26.40
2018-05-21T11:21:01.316Z,26.60
2018-05-21T11:23:29.172Z,26.50
2018-05-21T11:25:57.301Z,26.30
2018-05-21T11:28:24.945Z,26.20
2018-05-21T11:30:53.412Z,26.20
2018-05-21T11:33:21.940Z,26.30
2018-05-21T11:35:50.407Z,26.20
2018-05-21T11:38:18.238Z,26.20
2018-05-21T11:40:45.883Z,26.40
2018-05-21T11:43:18.071Z,26.70
2018-05-21T11:45:46.445Z,26.70
2018-05-21T11:48:14.072Z,26.70
2018-05-21T11:50:42.290Z,26.30
2018-05-21T11:53:09.863Z,26.40
2018-05-21T11:55:37.590Z,26.80
2018-05-21T11:58:05.247Z,26.80
2018-05-21T12:00:33.668Z,27.10
2018-05-21T12:03:01.546Z,27.10
2018-05-21T12:05:29.416Z,26.80
2018-05-21T12:07:57.116Z,27.10
2018-05-21T12:10:24.695Z,26.60
2018-05-21T12:12:53.124Z,26.40
2018-05-21T12:15:22.403Z,26.70
2018-05-21T12:17:49.985Z,26.70
2018-05-21T12:20:17.642Z,26.90
2018-05-21T12:22:45.166Z,26.80
2018-05-21T12:25:13.463Z,27.00
2018-05-21T12:27:41.729Z,26.80
2018-05-21T12:30:09.283Z,26.80
2018-05-21T12:32:36.922Z,27.10
2018-05-21T12:35:05.968Z,27.40
2018-05-21T12:37:33.635Z,27.50
2018-05-21T12:40:01.152Z,27.50
2018-05-21T12:42:29.562Z,26.40
2018-05-21T12:44:57.441Z,26.40
2018-05-21T12:47:25.015Z,26.40
2018-05-21T12:49:52.591Z,26.80
2018-05-21T12:52:20.161Z,27.00
2018-05-21T12:54:47.939Z,27.00
2018-05-21T12:57:16.175Z,27.00
2018-05-21T12:59:44.561Z,26.70
2018-05-21T13:02:13.013Z,26.60
2018-05-21T13:04:40.676Z,26.60
2018-05-21T13:07:08.284Z,26.60
2018-05-21T13:09:35.852Z,27.00
2018-05-21T13:12:03.471Z,27.10
2018-05-21T13:14:31.067Z,26.90
2018-05-21T13:16:59.695Z,27.20
2018-05-21T13:19:27.442Z,27.20
2018-05-21T13:21:54.996Z,27.30
2018-05-21T13:24:23.461Z,27.70
2018-05-21T13:26:51.240Z,27.70
2018-05-21T13:29:19.759Z,27.50
2018-05-21T13:31:47.672Z,27.50
2018-05-21T13:34:15.419Z,27.60
2018-05-21T13:36:43.885Z,27.90
2018-05-21T13:39:11.608Z,27.90
2018-05-21T13:41:39.688Z,27.60
2018-05-21T13:44:17.706Z,27.60
2018-05-21T13:46:47.134Z,27.50
2018-05-21T13:49:15.144Z,27.60
2018-05-21T13:51:43.496Z,27.50
2018-05-21T13:54:11.422Z,27.80
2018-05-21T13:56:40.305Z,27.60
2018-05-21T13:59:09.025Z,27.90
2018-05-21T14:01:38.553Z,27.70
2018-05-21T14:04:07.283Z,27.70
2018-05-21T14:06:35.897Z,27.60
2018-05-21T14:09:03.797Z,27.40
2018-05-21T14:11:31.927Z,27.30
2018-05-21T14:13:59.779Z,27.40
2018-05-21T14:16:28.112Z,27.20
2018-05-21T14:18:56.659Z,27.10
2018-05-21T14:21:24.777Z,26.80
2018-05-21T14:23:54.490Z,26.90
2018-05-21T14:26:23.581Z,27.10
2018-05-21T14:28:51.584Z,27.10
2018-05-21T14:31:21.938Z,26.90
2018-05-21T14:34:00.378Z,27.10
2018-05-21T14:36:29.238Z,27.70
2018-05-21T14:38:58.378Z,27.50
2018-05-21T14:41:27.304Z,27.50
2018-05-21T14:43:55.802Z,27.50
2018-05-21T14:46:23.686Z,27.40
2018-05-21T14:48:51.623Z,27.10
2018-05-21T14:51:19.630Z,26.80
2018-05-21T14:53:59.905Z,27.00
2018-05-21T14:56:38.825Z,27.20
2018-05-21T14:59:07.312Z,27.30
2018-05-21T15:01:35.247Z,27.30
2018-05-21T15:04:03.623Z,27.30
2018-05-21T15:06:42.087Z,27.30
2018-05-21T15:09:09.925Z,27.30
2018-05-21T15:11:37.826Z,27.10
2018-05-21T15:14:06.401Z,27.20
2018-05-21T15:16:34.160Z,27.20
2018-05-21T15:19:02.552Z,27.10
2018-05-21T15:21:30.528Z,27.10
2018-05-21T15:23:58.340Z,27.30
2018-05-21T15:26:26.209Z,27.10
2018-05-21T15:28:54.080Z,27.40
2018-05-21T15:31:22.688Z,27.70
2018-05-21T15:33:50.435Z,27.70
2018-05-21T15:36:18.072Z,27.40
2018-05-21T15:38:45.829Z,27.40
2018-05-21T15:41:13.400Z,27.50
2018-05-21T15:43:41.410Z,27.60
2018-05-21T15:46:08.983Z,27.50
2018-05-21T15:48:36.976Z,27.00
2018-05-21T15:51:04.561Z,26.60
2018-05-21T15:53:33.155Z,26.70
2018-05-21T15:56:01.846Z,26.80
2018-05-21T15:58:30.397Z,26.90
2018-05-21T16:00:58.820Z,26.90
2018-05-21T16:03:26.431Z,27.00
2018-05-21T16:05:54.873Z,26.80
2018-05-21T16:08:23.678Z,26.80
2018-05-21T16:10:53.002Z,26.50
2018-05-21T16:13:20.990Z,26.40
2018-05-21T16:15:59.764Z,26.40
2018-05-21T16:18:28.192Z,26.00
2018-05-21T16:20:55.881Z,26.00
2018-05-21T16:23:23.640Z,25.90
2018-05-21T16:25:51.238Z,25.90
2018-05-21T16:28:18.877Z,26.00
2018-05-21T16:30:46.484Z,26.10
2018-05-21T16:33:14.084Z,26.10
2018-05-21T16:35:41.583Z,26.10
2018-05-21T16:38:09.098Z,26.20
2018-05-21T16:40:36.712Z,26.30
2018-05-21T16:43:05.017Z,26.40
2018-05-21T16:45:32.531Z,26.40
2018-05-21T16:48:00.070Z,26.30
2018-05-21T16:50:27.889Z,25.90
2018-05-21T16:52:55.440Z,25.90
2018-05-21T16:55:23.100Z,26.00
2018-05-21T16:57:50.664Z,26.20
2018-05-21T17:00:18.212Z,26.30
2018-05-21T17:02:45.723Z,26.30
2018-05-21T17:05:13.256Z,26.20
2018-05-21T17:07:41.701Z,26.00
2018-05-21T17:10:09.355Z,25.90
2018-05-21T17:12:36.875Z,26.00
2018-05-21T17:15:04.492Z,25.90
2018-05-21T17:17:32.039Z,25.70
2018-05-21T17:20:00.448Z,25.50
2018-05-21T17:22:27.982Z,25.50
2018-05-21T17:24:55.514Z,25.40
2018-05-21T17:27:23.003Z,25.30
2018-05-21T17:29:50.798Z,25.20
2018-05-21T17:32:18.352Z,25.10
2018-05-21T17:34:45.993Z,24.90
2018-05-21T17:37:13.646Z,24.80
2018-05-21T17:39:42.043Z,24.60
2018-05-21T17:42:10.750Z,24.50
2018-05-21T17:44:38.400Z,24.50
2018-05-21T17:47:05.966Z,24.40
2018-05-21T17:49:33.591Z,24.30
2018-05-21T17:52:01.290Z,24.20
2018-05-21T17:54:29.174Z,24.10
2018-05-21T17:56:57.172Z,24.10
2018-05-21T17:59:24.789Z,24.00
2018-05-21T18:01:52.401Z,23.90
2018-05-21T18:04:20.196Z,23.90
2018-05-21T18:06:47.739Z,23.70
2018-05-21T18:09:15.341Z,23.60
2018-05-21T18:11:42.951Z,23.40
2018-05-21T18:14:10.835Z,23.40
2018-05-21T18:16:38.471Z,23.30
2018-05-21T18:19:06.197Z,23.10
2018-05-21T18:21:34.368Z,23.00
2018-05-21T18:24:03.069Z,23.00
2018-05-21T18:26:31.168Z,23.00
2018-05-21T18:28:58.752Z,22.90
2018-05-21T18:31:26.781Z,22.70
2018-05-21T18:33:55.106Z,22.60
2018-05-21T18:36:23.373Z,22.60
2018-05-21T18:38:51.686Z,22.50
2018-05-21T18:41:19.582Z,22.70
2018-05-21T18:43:47.558Z,22.60
2018-05-21T18:46:15.272Z,22.60
2018-05-21T18:48:42.990Z,22.50
2018-05-21T18:51:11.054Z,22.60
2018-05-21T18:53:38.922Z,22.50
2018-05-21T18:56:07.638Z,22.40
2018-05-21T18:58:36.221Z,22.20
2018-05-21T19:01:04.130Z,22.20
2018-05-21T19:06:29.352Z,22.20
2018-05-21T19:09:07.298Z,22.10
2018-05-21T19:11:36.317Z,22.10
2018-05-21T19:22:29.849Z,22.00
2018-05-21T19:24:58.686Z,22.00
2018-05-21T19:27:26.606Z,22.00
2018-05-21T19:29:54.343Z,22.00
2018-05-21T19:32:22.039Z,22.00
2018-05-21T19:34:50.594Z,22.00
2018-05-21T19:37:19.034Z,22.10
2018-05-21T19:39:46.806Z,22.10
2018-05-21T19:42:14.767Z,22.00
2018-05-21T19:44:42.624Z,21.80
2018-05-21T19:47:10.473Z,21.80
2018-05-21T19:49:38.172Z,21.70
2018-05-21T19:52:07.307Z,21.60
2018-05-21T19:54:35.084Z,21.60
2018-05-21T19:57:03.077Z,21.60
2018-05-21T19:59:35.717Z,21.50
2018-05-21T20:02:04.087Z,21.60
2018-05-21T20:04:32.003Z,21.60
2018-05-21T20:06:59.696Z,21.50
2018-05-21T20:09:28.200Z,21.30
2018-05-21T20:11:58.845Z,21.30
2018-05-21T20:14:26.603Z,21.20
2018-05-21T20:16:55.018Z,21.00
2018-05-21T20:19:22.550Z,21.00
2018-05-21T20:21:52.004Z,20.90
2018-05-21T20:24:19.508Z,20.90
2018-05-21T20:26:47.108Z,20.80
2018-05-21T20:29:14.715Z,20.80
2018-05-21T20:31:43.097Z,20.80
2018-05-21T20:34:11.449Z,20.30
2018-05-21T20:36:39.177Z,20.30
2018-05-21T20:39:06.995Z,20.00
2018-05-21T20:41:34.528Z,19.60
2018-05-21T20:44:02.131Z,19.30
2018-05-21T20:46:30.265Z,19.10
2018-05-21T20:48:58.588Z,18.80
2018-05-21T20:51:26.137Z,18.80
2018-05-21T20:53:54.471Z,18.60
2018-05-21T20:56:22.052Z,18.60
2018-05-21T20:58:49.624Z,18.50
2018-05-21T21:01:17.253Z,18.60
2018-05-21T21:03:45.595Z,18.50
2018-05-21T21:06:13.140Z,18.40
2018-05-21T21:08:40.826Z,18.40
2018-05-21T21:11:08.268Z,18.40
2018-05-21T21:13:35.796Z,18.40
2018-05-21T21:16:03.375Z,18.20
2018-05-21T21:18:30.974Z,18.20
2018-05-21T21:20:59.823Z,18.10
2018-05-21T21:23:27.491Z,18.00
2018-05-21T21:25:55.235Z,17.80
2018-05-21T21:28:22.808Z,17.70
2018-05-21T21:30:50.413Z,17.60
2018-05-21T21:33:17.936Z,17.50
2018-05-21T21:35:45.459Z,17.50
2018-05-21T21:38:12.987Z,17.50
2018-05-21T21:40:41.272Z,17.30
2018-05-21T21:43:09.568Z,17.20
2018-05-21T21:45:38.016Z,17.10
2018-05-21T21:48:05.555Z,17.10
2018-05-21T21:50:33.494Z,17.10
2018-05-21T21:53:01.010Z,17.00
2018-05-21T21:55:28.600Z,17.00
2018-05-21T21:57:56.104Z,17.00
2018-05-21T22:00:23.771Z,17.00
2018-05-21T22:02:51.317Z,17.00
2018-05-21T22:05:18.851Z,17.00
2018-05-21T22:07:46.360Z,17.10
2018-05-21T22:10:13.899Z,17.10
2018-05-21T22:12:41.412Z,17.20
2018-05-21T22:15:08.929Z,17.20
2018-05-21T22:17:37.221Z,17.10
2018-05-21T22:20:05.537Z,17.10
2018-05-21T22:22:33.072Z,17.10
2018-05-21T22:25:01.377Z,17.10
2018-05-21T22:27:28.908Z,17.10
2018-05-21T22:29:56.444Z,17.10
2018-05-21T22:32:24.012Z,17.10
2018-05-21T22:34:51.514Z,17.10
2018-05-21T22:37:19.056Z,17.20
2018-05-21T22:39:46.568Z,17.10
2018-05-21T22:42:14.140Z,17.10
2018-05-21T22:44:41.641Z,16.90
2018-05-21T22:47:09.179Z,16.90
2018-05-21T22:49:36.711Z,16.90
2018-05-21T22:52:04.319Z,17.00
2018-05-21T22:54:35.855Z,17.00
2018-05-21T22:57:03.408Z,17.00
2018-05-21T22:59:30.952Z,16.90
2018-05-21T23:01:58.466Z,16.90
2018-05-21T23:04:26.054Z,16.80
2018-05-21T23:06:53.631Z,16.80
2018-05-21T23:09:21.426Z,16.80
2018-05-21T23:11:49.001Z,16.80
2018-05-21T23:14:16.524Z,16.80
2018-05-21T23:16:44.076Z,16.80
2018-05-21T23:19:12.388Z,16.80
2018-05-21T23:21:39.903Z,16.80
2018-05-21T23:24:07.424Z,16.80
2018-05-21T23:26:34.960Z,16.80
2018-05-21T23:29:02.511Z,16.80
2018-05-21T23:31:30.013Z,16.80
2018-05-21T23:33:58.327Z,16.90
2018-05-21T23:36:25.865Z,16.90
2018-05-21T23:38:53.375Z,16.90
2018-05-21T23:41:20.914Z,16.90
2018-05-21T23:43:48.444Z,16.90
2018-05-21T23:46:15.972Z,16.80
2018-05-21T23:48:44.240Z,16.60
2018-05-21T23:51:11.790Z,16.60
2018-05-21T23:53:39.299Z,16.60
2018-05-21T23:56:07.616Z,16.50
2018-05-21T23:58:35.140Z,16.50
